createdAt,value
2018-03-31T00:00:06.301Z,97131.56
2018-03-31T00:02:33.174Z,97127.33
2018-03-31T00:05:00.057Z,97128.89
2018-03-31T00:07:26.922Z,97130.25
2018-03-31T00:09:53.808Z,97126.63
2018-03-31T00:12:20.680Z,97111.92
2018-03-31T00:14:47.557Z,97113.02
2018-03-31T00:17:14.425Z,97111.45
2018-03-31T00:19:41.308Z,97112.98
2018-03-31T00:22:08.177Z,97111.42
2018-03-31T00:24:35.059Z,97110.88
2018-03-31T00:27:01.940Z,97111.31
2018-03-31T00:29:28.819Z,97108.38
2018-03-31T00:31:55.688Z,97114.97
2018-03-31T00:34:22.579Z,97112.93
2018-03-31T00:36:49.446Z,97121.16
2018-03-31T00:39:16.333Z,97114.30
2018-03-31T00:41:43.198Z,97108.12
2018-03-31T00:44:10.074Z,97110.27
2018-03-31T00:46:36.936Z,97114.30
2018-03-31T00:49:03.816Z,97114.19
2018-03-31T00:51:30.681Z,97119.78
2018-03-31T00:53:57.558Z,97127.33
2018-03-31T00:56:24.432Z,97131.14
2018-03-31T00:58:51.301Z,97126.80
2018-03-31T01:01:18.169Z,97127.37
2018-03-31T01:03:45.046Z,97128.63
2018-03-31T01:06:11.918Z,97122.93
2018-03-31T01:08:38.784Z,97123.03
2018-03-31T01:11:05.761Z,97123.67
2018-03-31T01:13:32.626Z,97116.59
2018-03-31T01:15:59.502Z,97119.32
2018-03-31T01:18:26.370Z,97127.02
2018-03-31T01:20:53.251Z,97121.44
2018-03-31T01:23:20.113Z,97123.92
2018-03-31T01:25:47.002Z,97124.49
2018-03-31T01:28:13.863Z,97124.55
2018-03-31T01:30:40.737Z,97129.46
2018-03-31T01:33:07.609Z,97123.45
2018-03-31T01:35:34.491Z,97120.86
2018-03-31T01:38:01.369Z,97120.75
2018-03-31T01:40:28.227Z,97119.87
2018-03-31T01:42:55.102Z,97114.09
2018-03-31T01:45:21.969Z,97121.28
2018-03-31T01:47:48.836Z,97116.20
2018-03-31T01:50:15.712Z,97114.69
2018-03-31T01:52:42.593Z,97122.70
2018-03-31T01:55:09.454Z,97117.27
2018-03-31T01:57:36.324Z,97120.84
2018-03-31T02:00:03.210Z,97124.07
2018-03-31T02:02:30.070Z,97120.56
2018-03-31T02:04:56.949Z,97127.98
2018-03-31T02:07:23.830Z,97119.83
2018-03-31T02:09:50.706Z,97124.48
2018-03-31T02:12:17.647Z,97117.30
2018-03-31T02:14:44.514Z,97112.75
2018-03-31T02:17:11.403Z,97105.84
2018-03-31T02:19:38.281Z,97107.17
2018-03-31T02:22:05.383Z,97104.84
2018-03-31T02:24:32.365Z,97093.62
2018-03-31T02:26:59.242Z,97101.89
2018-03-31T02:29:26.119Z,97093.88
2018-03-31T02:31:53.026Z,97090.69
2018-03-31T02:34:19.889Z,97091.28
2018-03-31T02:36:46.770Z,97094.88
2018-03-31T02:39:13.638Z,97086.36
2018-03-31T02:41:40.511Z,97085.44
2018-03-31T02:44:07.376Z,97079.41
2018-03-31T02:46:34.250Z,97077.23
2018-03-31T02:49:01.130Z,97077.12
2018-03-31T02:51:27.983Z,97079.48
2018-03-31T02:53:54.842Z,97071.56
2018-03-31T02:56:21.722Z,97072.36
2018-03-31T02:58:48.603Z,97070.03
2018-03-31T03:01:15.477Z,97065.73
2018-03-31T03:03:42.342Z,97066.45
2018-03-31T03:06:09.229Z,97061.47
2018-03-31T03:08:36.087Z,97066.43
2018-03-31T03:11:02.965Z,97064.47
2018-03-31T03:13:29.840Z,97063.53
2018-03-31T03:15:56.765Z,97062.02
2018-03-31T03:18:23.648Z,97067.19
2018-03-31T03:20:50.514Z,97070.02
2018-03-31T03:23:17.392Z,97070.79
2018-03-31T03:25:44.257Z,97069.06
2018-03-31T03:28:11.134Z,97063.78
2018-03-31T03:30:37.995Z,97067.57
2018-03-31T03:33:04.990Z,97059.55
2018-03-31T03:35:31.872Z,97053.94
2018-03-31T03:37:58.742Z,97061.65
2018-03-31T03:40:25.607Z,97060.62
2018-03-31T03:42:52.488Z,97060.69
2018-03-31T03:45:19.346Z,97063.30
2018-03-31T03:47:46.832Z,97063.84
2018-03-31T03:50:13.711Z,97063.55
2018-03-31T03:52:40.582Z,97067.55
2018-03-31T03:55:07.450Z,97066.84
2018-03-31T03:57:34.322Z,97067.27
2018-03-31T04:00:01.192Z,97075.08
2018-03-31T04:02:28.079Z,97077.67
2018-03-31T04:04:54.946Z,97066.79
2018-03-31T04:07:21.828Z,97063.88
2018-03-31T04:09:48.691Z,97068.42
2018-03-31T04:12:15.574Z,97067.41
2018-03-31T04:14:42.434Z,97067.27
2018-03-31T04:17:09.340Z,97065.22
2018-03-31T04:19:36.193Z,97072.13
2018-03-31T04:22:03.046Z,97067.98
2018-03-31T04:24:29.916Z,97071.30
2018-03-31T04:26:56.771Z,97072.35
2018-03-31T04:29:23.640Z,97082.53
2018-03-31T04:31:50.505Z,97082.73
2018-03-31T04:34:17.405Z,97087.17
2018-03-31T04:36:44.269Z,97088.69
2018-03-31T04:39:11.156Z,97083.82
2018-03-31T04:41:38.010Z,97088.49
2018-03-31T04:44:04.934Z,97086.07
2018-03-31T04:46:31.753Z,97092.45
2018-03-31T04:48:58.613Z,97093.69
2018-03-31T04:51:25.479Z,97091.38
2018-03-31T04:53:52.521Z,97093.74
2018-03-31T04:56:19.388Z,97099.42
2018-03-31T04:58:46.249Z,97097.11
2018-03-31T05:01:13.125Z,97104.53
2018-03-31T05:03:40.001Z,97102.84
2018-03-31T05:06:06.870Z,97111.66
2018-03-31T05:08:33.753Z,97104.25
2018-03-31T05:11:00.630Z,97103.05
2018-03-31T05:13:27.498Z,97105.26
2018-03-31T05:15:54.357Z,97113.83
2018-03-31T05:18:21.230Z,97107.05
2018-03-31T05:20:48.090Z,97110.22
2018-03-31T05:23:14.954Z,97116.04
2018-03-31T05:25:41.832Z,97116.00
2018-03-31T05:28:08.691Z,97110.91
2018-03-31T05:30:35.558Z,97110.09
2018-03-31T05:33:02.418Z,97113.03
2018-03-31T05:35:29.291Z,97120.51
2018-03-31T05:37:56.155Z,97121.50
2018-03-31T05:40:23.043Z,97116.88
2018-03-31T05:42:49.898Z,97122.79
2018-03-31T05:45:16.778Z,97118.81
2018-03-31T05:47:43.630Z,97116.21
2018-03-31T05:50:10.502Z,97121.33
2018-03-31T05:52:37.361Z,97125.05
2018-03-31T05:55:04.306Z,97117.77
2018-03-31T05:57:31.174Z,97118.73
2018-03-31T05:59:58.062Z,97121.80
2018-03-31T06:02:24.934Z,97126.06
2018-03-31T06:04:51.812Z,97120.83
2018-03-31T06:07:18.673Z,97121.31
2018-03-31T06:09:45.542Z,97126.54
2018-03-31T06:12:12.411Z,97120.70
2018-03-31T06:14:39.291Z,97128.99
2018-03-31T06:17:06.165Z,97121.34
2018-03-31T06:19:33.048Z,97120.78
2018-03-31T06:21:59.906Z,97125.16
2018-03-31T06:24:26.789Z,97119.44
2018-03-31T06:26:53.661Z,97122.64
2018-03-31T06:29:20.534Z,97119.70
2018-03-31T06:31:47.407Z,97115.70
2018-03-31T06:34:14.269Z,97113.94
2018-03-31T06:36:41.147Z,97119.29
2018-03-31T06:39:08.009Z,97116.20
2018-03-31T06:41:34.882Z,97110.17
2018-03-31T06:44:01.752Z,97110.73
2018-03-31T06:46:28.628Z,97109.73
2018-03-31T06:48:55.486Z,97116.83
2018-03-31T06:51:22.362Z,97110.02
2018-03-31T06:53:49.223Z,97109.25
2018-03-31T06:56:16.094Z,97109.11
2018-03-31T06:58:42.958Z,97108.38
2018-03-31T07:01:09.824Z,97104.76
2018-03-31T07:03:36.690Z,97112.23
2018-03-31T07:06:03.551Z,97108.05
2018-03-31T07:08:30.421Z,97110.08
2018-03-31T07:10:57.300Z,97114.19
2018-03-31T07:13:24.173Z,97116.25
2018-03-31T07:15:51.218Z,97111.86
2018-03-31T07:18:18.093Z,97115.62
2018-03-31T07:20:44.958Z,97110.55
2018-03-31T07:23:11.818Z,97108.41
2018-03-31T07:25:38.701Z,97105.39
2018-03-31T07:28:05.557Z,97104.77
2018-03-31T07:30:32.430Z,97114.03
2018-03-31T07:32:59.299Z,97109.73
2018-03-31T07:35:26.177Z,97110.47
2018-03-31T07:37:53.058Z,97110.28
2018-03-31T07:40:19.917Z,97104.48
2018-03-31T07:42:46.820Z,97098.98
2018-03-31T07:45:13.704Z,97102.46
2018-03-31T07:47:40.591Z,97105.94
2018-03-31T07:50:07.475Z,97103.31
2018-03-31T07:52:35.168Z,97110.86
2018-03-31T07:55:02.061Z,97116.78
2018-03-31T07:57:28.949Z,97107.00
2018-03-31T07:59:55.828Z,97114.75
2018-03-31T08:02:22.724Z,97107.23
2018-03-31T08:04:49.590Z,97100.75
2018-03-31T08:07:16.505Z,97106.73
2018-03-31T08:09:43.383Z,97110.91
2018-03-31T08:12:10.285Z,97100.62
2018-03-31T08:14:37.160Z,97105.83
2018-03-31T08:17:04.079Z,97109.41
2018-03-31T08:19:30.944Z,97118.06
2018-03-31T08:21:57.810Z,97109.84
2018-03-31T08:24:24.693Z,97113.06
2018-03-31T08:26:51.570Z,97113.27
2018-03-31T08:29:18.447Z,97120.04
2018-03-31T08:31:45.322Z,97112.64
2018-03-31T08:34:12.300Z,97108.42
2018-03-31T08:36:39.791Z,97111.22
2018-03-31T08:39:07.249Z,97108.95
2018-03-31T08:41:35.048Z,97107.92
2018-03-31T08:44:02.569Z,97102.06
2018-03-31T08:46:30.053Z,97102.16
2018-03-31T08:48:57.563Z,97091.80
2018-03-31T08:51:25.072Z,97097.05
2018-03-31T08:53:52.564Z,97085.12
2018-03-31T08:56:19.872Z,97091.29
2018-03-31T08:58:46.794Z,97093.84
2018-03-31T09:01:14.043Z,97094.16
2018-03-31T09:03:41.624Z,97092.63
2018-03-31T09:06:08.987Z,97098.45
2018-03-31T09:08:36.578Z,97100.73
2018-03-31T09:11:03.780Z,97097.27
2018-03-31T09:13:31.563Z,97096.56
2018-03-31T09:15:59.143Z,97096.75
2018-03-31T09:18:27.360Z,97097.77
2018-03-31T09:20:54.823Z,97105.28
2018-03-31T09:23:22.165Z,97103.26
2018-03-31T09:25:50.890Z,97110.38
2018-03-31T09:28:18.384Z,97103.69
2018-03-31T09:30:45.887Z,97100.28
2018-03-31T09:33:13.325Z,97097.80
2018-03-31T09:35:40.728Z,97099.42
2018-03-31T09:38:08.430Z,97097.75
2018-03-31T09:40:37.684Z,97097.86
2018-03-31T09:43:05.134Z,97099.48
2018-03-31T09:45:32.537Z,97099.45
2018-03-31T09:47:59.414Z,97103.44
2018-03-31T09:50:26.278Z,97100.86
2018-03-31T09:52:53.222Z,97106.38
2018-03-31T09:55:20.770Z,97109.28
2018-03-31T09:57:47.640Z,97108.23
2018-03-31T10:00:14.527Z,97106.95
2018-03-31T10:02:41.389Z,97102.48
2018-03-31T10:05:08.266Z,97100.45
2018-03-31T10:07:35.126Z,97101.86
2018-03-31T10:10:02.018Z,97102.95
2018-03-31T10:12:28.928Z,97097.64
2018-03-31T10:14:55.758Z,97098.11
2018-03-31T10:17:22.629Z,97094.20
2018-03-31T10:19:49.497Z,97100.44
2018-03-31T10:22:16.355Z,97103.52
2018-03-31T10:24:43.233Z,97096.80
2018-03-31T10:27:10.114Z,97102.58
2018-03-31T10:29:36.987Z,97101.62
2018-03-31T10:32:03.855Z,97103.44
2018-03-31T10:34:31.288Z,97107.17
2018-03-31T10:36:59.505Z,97105.64
2018-03-31T10:39:27.064Z,97094.63
2018-03-31T10:41:54.604Z,97100.03
2018-03-31T10:44:22.674Z,97100.85
2018-03-31T10:46:50.230Z,97099.92
2018-03-31T10:49:17.772Z,97102.71
2018-03-31T10:51:45.233Z,97096.66
2018-03-31T10:54:12.701Z,97095.81
2018-03-31T10:56:39.628Z,97091.92
2018-03-31T10:59:06.513Z,97083.38
2018-03-31T11:01:33.416Z,97084.79
2018-03-31T11:04:00.279Z,97092.08
2018-03-31T11:06:27.171Z,97089.05
2018-03-31T11:08:54.982Z,97086.43
2018-03-31T11:11:21.900Z,97084.92
2018-03-31T11:13:48.769Z,97080.25
2018-03-31T11:16:15.638Z,97090.35
2018-03-31T11:18:42.540Z,97087.43
2018-03-31T11:21:09.407Z,97090.89
2018-03-31T11:23:36.278Z,97095.39
2018-03-31T11:26:03.184Z,97093.58
2018-03-31T11:28:30.038Z,97090.84
2018-03-31T11:30:56.949Z,97090.91
2018-03-31T11:33:23.818Z,97081.11
2018-03-31T11:35:50.700Z,97094.46
2018-03-31T11:38:17.588Z,97093.36
2018-03-31T11:40:44.459Z,97085.52
2018-03-31T11:43:11.324Z,97089.19
2018-03-31T11:45:38.214Z,97083.58
2018-03-31T11:48:05.084Z,97094.46
2018-03-31T11:50:32.027Z,97078.52
2018-03-31T11:52:58.885Z,97075.63
2018-03-31T11:55:26.547Z,97074.33
2018-03-31T11:57:53.459Z,97075.05
2018-03-31T12:00:20.455Z,97072.13
2018-03-31T12:02:47.318Z,97072.78
2018-03-31T12:05:14.208Z,97078.81
2018-03-31T12:07:41.073Z,97076.61
2018-03-31T12:10:07.998Z,97080.09
2018-03-31T12:12:34.867Z,97076.30
2018-03-31T12:15:01.741Z,97075.49
2018-03-31T12:17:28.634Z,97074.89
2018-03-31T12:19:55.486Z,97074.74
2018-03-31T12:22:22.396Z,97065.53
2018-03-31T12:24:49.267Z,97063.00
2018-03-31T12:27:16.134Z,97059.34
2018-03-31T12:29:43.007Z,97070.66
2018-03-31T12:32:09.896Z,97071.67
2018-03-31T12:34:36.750Z,97056.67
2018-03-31T12:37:03.626Z,97061.39
2018-03-31T12:39:30.498Z,97064.02
2018-03-31T12:41:57.374Z,97057.67
2018-03-31T12:44:24.446Z,97059.45
2018-03-31T12:46:51.388Z,97054.71
2018-03-31T12:49:18.331Z,97050.58
2018-03-31T12:51:45.299Z,97046.17
2018-03-31T12:54:12.129Z,97051.73
2018-03-31T12:56:38.990Z,97050.87
2018-03-31T12:59:05.877Z,97042.63
2018-03-31T13:01:32.928Z,97051.63
2018-03-31T13:03:59.794Z,97045.13
2018-03-31T13:06:26.670Z,97046.44
2018-03-31T13:08:53.548Z,97041.35
2018-03-31T13:11:20.418Z,97035.08
2018-03-31T13:13:47.290Z,97036.78
2018-03-31T13:16:14.162Z,97036.08
2018-03-31T13:18:41.045Z,97033.84
2018-03-31T13:21:07.916Z,97039.70
2018-03-31T13:23:34.796Z,97040.42
2018-03-31T13:26:01.666Z,97034.41
2018-03-31T13:28:28.537Z,97032.69
2018-03-31T13:30:55.587Z,97032.94
2018-03-31T13:33:22.459Z,97032.50
2018-03-31T13:35:49.328Z,97032.62
2018-03-31T13:38:16.209Z,97028.14
2018-03-31T13:40:43.071Z,97023.81
2018-03-31T13:43:09.952Z,97026.10
2018-03-31T13:45:36.812Z,97035.00
2018-03-31T13:48:03.694Z,97033.73
2018-03-31T13:50:30.555Z,97034.33
2018-03-31T13:52:57.442Z,97029.52
2018-03-31T13:55:24.315Z,97036.64
2018-03-31T13:57:51.197Z,97032.16
2018-03-31T14:00:18.069Z,97029.81
2018-03-31T14:02:44.984Z,97032.92
2018-03-31T14:05:11.864Z,97040.62
2018-03-31T14:07:38.736Z,97038.23
2018-03-31T14:10:05.614Z,97046.93
2018-03-31T14:12:32.479Z,97037.06
2018-03-31T14:14:59.372Z,97036.82
2018-03-31T14:17:26.834Z,97037.02
2018-03-31T14:19:53.756Z,97041.18
2018-03-31T14:24:53.947Z,97044.02
2018-03-31T14:27:20.910Z,97050.69
2018-03-31T14:29:47.800Z,97056.68
2018-03-31T14:32:14.665Z,97052.97
2018-03-31T14:34:41.543Z,97049.06
2018-03-31T14:37:08.411Z,97057.80
2018-03-31T14:39:35.290Z,97058.02
2018-03-31T14:42:02.155Z,97058.97
2018-03-31T14:44:29.039Z,97061.98
2018-03-31T14:46:55.918Z,97060.17
2018-03-31T14:49:22.789Z,97070.30
2018-03-31T14:51:49.676Z,97072.39
2018-03-31T14:54:16.562Z,97077.23
2018-03-31T14:56:43.425Z,97074.11
2018-03-31T14:59:10.306Z,97079.17
2018-03-31T15:01:37.180Z,97065.02
2018-03-31T15:04:04.058Z,97065.66
2018-03-31T15:06:30.925Z,97060.78
2018-03-31T15:08:58.229Z,97057.57
2018-03-31T15:11:25.109Z,97068.23
2018-03-31T15:13:51.983Z,97064.04
2018-03-31T15:16:18.882Z,97063.22
2018-03-31T15:18:45.798Z,97060.83
2018-03-31T15:21:12.755Z,97064.95
2018-03-31T15:23:39.644Z,97062.69
2018-03-31T15:26:06.519Z,97069.22
2018-03-31T15:28:33.504Z,97073.98
2018-03-31T15:31:00.355Z,97072.96
2018-03-31T15:33:27.230Z,97075.20
2018-03-31T15:35:54.240Z,97068.59
2018-03-31T15:38:21.109Z,97058.60
2018-03-31T15:40:48.004Z,97063.09
2018-03-31T15:43:14.871Z,97066.56
2018-03-31T15:45:41.742Z,97071.10
2018-03-31T15:48:08.638Z,97073.04
2018-03-31T15:50:35.499Z,97070.23
2018-03-31T15:53:02.386Z,97068.51
2018-03-31T15:55:29.594Z,97067.09
2018-03-31T15:57:56.527Z,97060.19
2018-03-31T16:00:23.402Z,97062.89
2018-03-31T16:02:50.265Z,97071.91
2018-03-31T16:05:17.263Z,97073.23
2018-03-31T16:07:44.205Z,97077.98
2018-03-31T16:10:11.085Z,97079.34
2018-03-31T16:12:37.948Z,97078.77
2018-03-31T16:15:04.942Z,97077.15
2018-03-31T16:17:31.872Z,97083.08
2018-03-31T16:19:58.756Z,97080.52
2018-03-31T16:22:25.634Z,97078.09
2018-03-31T16:24:52.617Z,97083.79
2018-03-31T16:27:19.525Z,97085.78
2018-03-31T16:29:46.462Z,97082.50
2018-03-31T16:32:13.458Z,97083.76
2018-03-31T16:34:40.449Z,97085.37
2018-03-31T16:37:07.268Z,97088.17
2018-03-31T16:39:34.143Z,97099.23
2018-03-31T16:42:01.006Z,97092.71
2018-03-31T16:44:27.914Z,97093.33
2018-03-31T16:46:54.808Z,97095.34
2018-03-31T16:49:21.706Z,97102.17
2018-03-31T16:51:48.595Z,97101.68
2018-03-31T16:54:15.470Z,97110.00
2018-03-31T16:56:42.344Z,97113.17
2018-03-31T16:59:09.246Z,97115.92
2018-03-31T17:01:36.126Z,97113.59
2018-03-31T17:04:03.068Z,97115.09
2018-03-31T17:06:29.887Z,97110.95
2018-03-31T17:08:56.753Z,97114.73
2018-03-31T17:11:23.618Z,97122.48
2018-03-31T17:13:50.495Z,97128.13
2018-03-31T17:16:17.370Z,97124.67
2018-03-31T17:18:44.252Z,97126.50
2018-03-31T17:21:11.249Z,97129.49
2018-03-31T17:23:38.198Z,97130.10
2018-03-31T17:26:05.068Z,97134.08
2018-03-31T17:28:32.397Z,97126.38
2018-03-31T17:30:59.394Z,97133.84
2018-03-31T17:33:26.390Z,97136.39
2018-03-31T17:35:53.308Z,97133.87
2018-03-31T17:38:20.189Z,97138.38
2018-03-31T17:40:47.051Z,97138.05
2018-03-31T17:43:14.929Z,97139.98
2018-03-31T17:45:41.786Z,97142.91
2018-03-31T17:48:08.676Z,97141.70
2018-03-31T17:50:35.538Z,97137.59
2018-03-31T17:53:03.110Z,97152.33
2018-03-31T17:55:29.985Z,97146.75
2018-03-31T17:57:56.889Z,97146.58
2018-03-31T18:00:23.759Z,97155.47
2018-03-31T18:02:50.637Z,97157.34
2018-03-31T18:05:17.513Z,97150.62
2018-03-31T18:07:44.386Z,97152.91
2018-03-31T18:10:11.255Z,97152.02
2018-03-31T18:12:38.129Z,97152.17
2018-03-31T18:15:04.981Z,97157.36
2018-03-31T18:17:31.843Z,97160.42
2018-03-31T18:19:58.714Z,97164.22
2018-03-31T18:22:25.602Z,97165.89
2018-03-31T18:24:52.468Z,97172.31
2018-03-31T18:27:19.351Z,97172.94
2018-03-31T18:29:46.193Z,97183.84
2018-03-31T18:32:13.070Z,97182.17
2018-03-31T18:34:40.891Z,97187.55
2018-03-31T18:37:07.786Z,97199.28
2018-03-31T18:39:34.659Z,97194.17
2018-03-31T18:42:01.514Z,97198.97
2018-03-31T18:44:28.384Z,97199.28
2018-03-31T18:46:55.245Z,97203.76
2018-03-31T18:49:22.131Z,97206.09
2018-03-31T18:51:48.998Z,97209.78
2018-03-31T18:54:15.854Z,97214.25
2018-03-31T18:56:42.763Z,97210.75
2018-03-31T18:59:09.633Z,97210.61
2018-03-31T19:01:36.496Z,97225.80
2018-03-31T19:04:03.386Z,97232.76
2018-03-31T19:06:30.244Z,97231.51
2018-03-31T19:08:57.110Z,97238.52
2018-03-31T19:11:23.973Z,97242.56
2018-03-31T19:13:50.861Z,97242.41
2018-03-31T19:16:17.714Z,97243.97
2018-03-31T19:18:44.600Z,97248.59
2018-03-31T19:21:11.489Z,97248.96
2018-03-31T19:23:38.350Z,97254.04
2018-03-31T19:26:06.115Z,97253.28
2018-03-31T19:28:32.986Z,97253.70
2018-03-31T19:30:59.867Z,97253.55
2018-03-31T19:33:26.738Z,97258.78
2018-03-31T19:35:59.251Z,97251.16
2018-03-31T19:38:26.122Z,97254.91
2018-03-31T19:40:53.012Z,97255.70
2018-03-31T19:43:19.871Z,97266.33
2018-03-31T19:45:46.744Z,97262.78
2018-03-31T19:48:13.615Z,97271.59
2018-03-31T19:50:40.499Z,97274.38
2018-03-31T19:53:07.403Z,97274.53
2018-03-31T19:55:34.288Z,97279.80
2018-03-31T19:58:01.158Z,97278.28
2018-03-31T20:00:28.057Z,97282.80
2018-03-31T20:02:54.911Z,97288.59
2018-03-31T20:05:21.778Z,97285.36
2018-03-31T20:07:48.670Z,97294.19
2018-03-31T20:10:15.570Z,97295.91
2018-03-31T20:12:42.426Z,97296.17
2018-03-31T20:15:09.313Z,97300.22
2018-03-31T20:17:36.997Z,97297.07
2018-03-31T20:20:03.884Z,97300.96
2018-03-31T20:22:30.797Z,97301.23
2018-03-31T20:24:57.685Z,97304.59
2018-03-31T20:27:24.635Z,97304.34
2018-03-31T20:29:51.505Z,97309.83
2018-03-31T20:32:18.371Z,97308.81
2018-03-31T20:34:45.236Z,97314.97
2018-03-31T20:37:12.123Z,97325.05
2018-03-31T20:39:38.990Z,97319.14
2018-03-31T20:42:05.880Z,97320.66
2018-03-31T20:44:32.768Z,97330.70
2018-03-31T20:46:59.956Z,97336.30
2018-03-31T20:49:26.831Z,97329.99
2018-03-31T20:51:53.711Z,97330.66
2018-03-31T20:54:20.838Z,97322.17
2018-03-31T20:56:47.714Z,97333.74
2018-03-31T20:59:14.586Z,97325.86
2018-03-31T21:01:41.470Z,97331.98
2018-03-31T21:04:08.338Z,97328.09
2018-03-31T21:06:35.822Z,97331.92
2018-03-31T21:09:02.694Z,97334.93
2018-03-31T21:11:29.565Z,97335.34
2018-03-31T21:13:56.438Z,97338.91
2018-03-31T21:16:23.316Z,97344.22
2018-03-31T21:18:50.186Z,97347.98
2018-03-31T21:21:17.070Z,97345.83
2018-03-31T21:23:43.949Z,97348.35
2018-03-31T21:26:10.830Z,97355.95
2018-03-31T21:28:37.695Z,97353.06
2018-03-31T21:31:04.570Z,97358.72
2018-03-31T21:33:31.446Z,97355.42
2018-03-31T21:35:58.378Z,97355.86
2018-03-31T21:38:25.247Z,97357.00
2018-03-31T21:40:52.116Z,97362.80
2018-03-31T21:43:18.991Z,97363.27
2018-03-31T21:45:45.866Z,97364.53
2018-03-31T21:48:12.766Z,97371.34
2018-03-31T21:50:39.639Z,97371.41
2018-03-31T21:53:06.526Z,97377.59
2018-03-31T21:55:33.397Z,97389.08
2018-03-31T21:58:00.295Z,97388.61
2018-03-31T22:02:39.370Z,97393.70
2018-03-31T22:05:06.323Z,97394.66
2018-03-31T22:07:33.217Z,97396.11
2018-03-31T22:10:00.076Z,97398.91
2018-03-31T22:12:26.953Z,97398.94
2018-03-31T22:14:59.442Z,97392.53
2018-03-31T22:17:26.345Z,97389.02
2018-03-31T22:19:53.207Z,97395.78
2018-03-31T22:22:20.085Z,97387.23
2018-03-31T22:24:46.965Z,97398.78
2018-03-31T22:27:13.850Z,97401.97
2018-03-31T22:29:40.718Z,97392.05
2018-03-31T22:32:07.606Z,97398.56
2018-03-31T22:34:34.482Z,97403.75
2018-03-31T22:37:01.338Z,97404.08
2018-03-31T22:39:28.218Z,97413.01
2018-03-31T22:41:55.081Z,97413.87
2018-03-31T22:44:21.964Z,97420.83
2018-03-31T22:46:48.827Z,97416.73
2018-03-31T22:49:15.702Z,97420.75
2018-03-31T22:51:42.583Z,97421.22
2018-03-31T22:54:09.459Z,97422.44
2018-03-31T22:56:36.389Z,97427.77
2018-03-31T22:59:03.261Z,97421.99
2018-03-31T23:01:30.166Z,97425.47
2018-03-31T23:03:57.041Z,97433.22
2018-03-31T23:06:23.910Z,97432.47
2018-03-31T23:08:50.792Z,97437.23
2018-03-31T23:11:17.657Z,97435.48
2018-03-31T23:13:45.020Z,97441.08
2018-03-31T23:16:11.873Z,97445.30
2018-03-31T23:18:38.746Z,97444.27
2018-03-31T23:21:05.612Z,97449.57
2018-03-31T23:23:32.489Z,97449.63
2018-03-31T23:25:59.360Z,97451.50
2018-03-31T23:28:26.232Z,97458.97
2018-03-31T23:30:53.108Z,97455.66
2018-03-31T23:33:19.971Z,97458.39
2018-03-31T23:35:46.838Z,97463.91
2018-03-31T23:38:13.713Z,97459.77
2018-03-31T23:40:40.591Z,97461.52
2018-03-31T23:43:07.451Z,97459.47
2018-03-31T23:45:34.321Z,97465.52
2018-03-31T23:48:01.199Z,97463.93
2018-03-31T23:50:28.074Z,97460.90
2018-03-31T23:52:54.940Z,97467.48
2018-03-31T23:55:21.824Z,97459.20
2018-03-31T23:57:48.693Z,97462.66
